Data for 04/03/2007

Time Sea-Level Adjusted Pressure Absolute Pressure Temperature Relative Humidity Dew Point   
(mb) (inHg) (mb) (inHg) (C) (F) (%) (C) (F)
00:05 1020 30.12 850 25.1 -4.4 24.1 89 -5.9 21.4
00:10 1020 30.12 850 25.1 -4.5 23.9 89 -6.1 21.1
00:15 1020 30.12 850 25.1 -4.5 23.9 88 -6.2 20.8
00:20 1020 30.12 850 25.1 -4.4 24 87 -6.3 20.7
00:25 1020 30.12 850 25.1 -4.4 24 87 -6.3 20.7
00:30 1021 30.15 850 25.1 -4.2 24.4 87 -6.1 21
00:35 1021 30.15 850 25.1 -4.1 24.6 87 -6 21.2
00:40 1021 30.15 850 25.1 -4 24.7 88 -5.8 21.6
00:45 1020 30.12 850 25.1 -4.1 24.7 88 -5.7 21.7
00:50 1021 30.15 850 25.1 -4.2 24.4 90 -5.6 21.9
00:55 1021 30.15 850 25.1 -4.3 24.2 90 -5.7 21.8
01:00 1021 30.15 850 25.1 -4.3 24.3 91 -5.6 21.9
01:05 1021 30.15 850 25.1 -4.3 24.2 91 -5.6 21.9
01:10 1021 30.15 850 25.1 -4.5 24 91 -5.8 21.6
01:15 1021 30.15 850 25.1 -4.4 24 91 -5.7 21.7
01:20 1021 30.15 850 25.1 -4.5 23.9 91 -5.7 21.7
01:25 1021 30.15 850 25.1 -4.4 24 91 -5.6 21.8
01:30 1021 30.15 850 25.1 -4.3 24.2 91 -5.6 22
01:35 1021 30.15 850 25.1 -4.3 24.4 91 -5.5 22.1
01:40 1021 30.15 850 25.1 -4.2 24.5 91 -5.4 22.3
01:45 1021 30.15 850 25.1 -4.1 24.6 92 -5.3 22.4
01:50 1021 30.15 850 25.1 -4.1 24.6 91 -5.3 22.4
01:55 1021 30.15 850 25.1 -4.2 24.4 92 -5.4 22.3
02:00 1021 30.15 850 25.1 -4.3 24.3 92 -5.4 22.3
02:05 1021 30.15 850 25.1 -4.3 24.2 92 -5.4 22.3
02:10 1021 30.15 850 25.1 -4.3 24.3 92 -5.5 22.2
02:15 1021 30.15 850 25.1 -4.3 24.3 92 -5.3 22.4
02:20 1021 30.15 850 25.1 -4.3 24.3 92 -5.4 22.3
02:25 1021 30.15 850 25.1 -4.4 24 92 -5.5 22.1
02:30 1021 30.15 851 25.13 -4.4 24.2 93 -5.3 22.5
02:35 1021 30.15 851 25.13 -4.1 24.6 93 -5.1 22.9
02:40 1021 30.15 850 25.1 -4 24.8 92 -5.1 22.9
02:45 1021 30.15 850 25.1 -4.1 24.6 92 -5.2 22.7
02:50 1021 30.15 851 25.13 -4.2 24.5 92 -5.2 22.6
02:55 1021 30.15 851 25.13 -4.3 24.3 92 -5.4 22.3
03:00 1021 30.15 851 25.13 -4.3 24.2 93 -5.3 22.4
03:05 1021 30.15 851 25.13 -4.2 24.4 93 -5.2 22.7
03:10 1021 30.15 851 25.13 -4.2 24.5 93 -5.1 22.9
03:15 1022 30.18 851 25.13 -4 24.8 94 -4.8 23.3
03:20 1022 30.18 851 25.13 -3.8 25.2 93 -4.8 23.4
03:25 1022 30.18 851 25.13 -3.7 25.4 93 -4.7 23.5
03:30 1022 30.18 851 25.13 -3.7 25.4 93 -4.7 23.6
03:35 1022 30.18 851 25.13 -3.6 25.4 93 -4.7 23.6
03:40 1021 30.15 851 25.13 -3.9 25 93 -4.8 23.4
03:45 1021 30.15 851 25.13 -4.2 24.5 94 -5 23.1
03:50 1021 30.15 851 25.13 -4.3 24.2 95 -5 23.1
03:55 1021 30.15 851 25.13 -4.2 24.4 95 -4.8 23.3
04:00 1021 30.15 851 25.13 -4 24.8 94 -4.8 23.4
04:05 1021 30.15 851 25.13 -3.9 25 93 -4.8 23.4
04:10 1021 30.15 851 25.13 -4 24.8 94 -4.8 23.3
04:15 1021 30.15 851 25.13 -3.8 25.1 92 -4.9 23.2
04:20 1021 30.15 851 25.13 -3.9 25 93 -4.9 23.2
04:25 1021 30.15 851 25.13 -3.7 25.4 91 -4.9 23.3
04:30 1021 30.15 851 25.13 -3.7 25.3 91 -5 23.1
04:35 1021 30.15 851 25.13 -3.8 25.1 91 -5.1 22.9
04:40 1022 30.18 851 25.13 -3.8 25.1 91 -5.1 22.9
04:45 1022 30.18 851 25.13 -3.7 25.3 90 -5.1 22.8
04:50 1022 30.18 851 25.13 -3.9 25 91 -5.2 22.7
04:55 1022 30.18 851 25.13 -4 24.9 92 -5.2 22.7
05:00 1022 30.18 851 25.13 -4 24.7 92 -5.2 22.7
05:05 1022 30.18 851 25.13 -4 24.8 92 -5.1 22.9
05:10 1022 30.18 851 25.13 -3.8 25.2 90 -5.3 22.5
05:15 1022 30.18 851 25.13 -3.7 25.4 88 -5.4 22.2
05:20 1022 30.18 851 25.13 -3.6 25.6 87 -5.4 22.2
05:25 1022 30.18 851 25.13 -3.5 25.7 87 -5.3 22.5
05:30 1022 30.18 851 25.13 -3.6 25.4 88 -5.3 22.5
05:35 1022 30.18 851 25.13 -3.9 25 90 -5.3 22.4
05:40 1022 30.18 851 25.13 -4 24.7 91 -5.3 22.4
05:45 1022 30.18 851 25.13 -4 24.7 91 -5.2 22.6
05:50 1022 30.18 851 25.13 -4 24.7 92 -5.2 22.7
05:55 1022 30.18 851 25.13 -4.1 24.6 91 -5.3 22.4
06:00 1022 30.18 851 25.13 -4.3 24.2 92 -5.5 22.1
06:05 1022 30.18 851 25.13 -4.4 24 92 -5.5 22
06:10 1022 30.18 851 25.13 -4.6 23.8 93 -5.5 22.1
06:15 1022 30.18 851 25.13 -4.6 23.8 93 -5.5 22.1
06:20 1022 30.18 851 25.13 -4.5 23.9 93 -5.4 22.2
06:25 1022 30.18 851 25.13 -4.5 23.9 93 -5.5 22.1
06:30 1022 30.18 852 25.16 -4.5 24 92 -5.6 22
06:35 1022 30.18 852 25.16 -4.6 23.6 92 -5.7 21.7
06:40 1022 30.18 852 25.16 -4.8 23.3 93 -5.7 21.7
06:45 1022 30.18 852 25.16 -5 23.1 94 -5.8 21.6
06:50 1022 30.18 852 25.16 -4.9 23.1 94 -5.8 21.5
06:55 1022 30.18 852 25.16 -4.9 23.2 93 -5.9 21.4
07:00 1022 30.18 852 25.16 -4.8 23.4 93 -5.8 21.5
07:05 1022 30.18 852 25.16 -4.7 23.5 92 -5.9 21.4
07:10 1022 30.18 852 25.16 -4.7 23.6 91 -6 21.3
07:15 1023 30.21 852 25.16 -4.7 23.5 90 -6.1 21.1
07:20 1023 30.21 852 25.16 -4.7 23.5 90 -6.2 20.8
07:25 1023 30.21 852 25.16 -4.8 23.4 90 -6.2 20.9
07:30 1023 30.21 852 25.16 -4.8 23.3 91 -6.1 21
07:35 1023 30.21 852 25.16 -4.7 23.5 91 -6 21.1
07:40 1023 30.21 852 25.16 -4.2 24.4 88 -5.9 21.4
07:45 1023 30.21 852 25.16 -3.8 25.2 84 -6.1 21.1
07:50 1023 30.21 852 25.16 -4.2 24.5 86 -6.2 20.8
07:55 1023 30.21 852 25.16 -4.5 23.9 86 -6.5 20.3
08:00 1023 30.21 852 25.16 -4.8 23.4 88 -6.5 20.3
08:05 1023 30.21 852 25.16 -4.7 23.6 87 -6.5 20.4
08:10 1023 30.21 852 25.16 -4.2 24.4 84 -6.6 20.1
08:15 1023 30.21 852 25.16 -3.9 25 82 -6.5 20.2
08:20 1023 30.21 852 25.16 -3.9 25 82 -6.5 20.2
08:25 1023 30.21 852 25.16 -3.7 25.4 80 -6.6 20.1
08:30 1023 30.21 852 25.16 -3.3 26 80 -6.4 20.5
08:35 1023 30.21 852 25.16 -2.5 27.5 75 -6.3 20.7
08:40 1023 30.21 852 25.16 -2.1 28.2 74 -6.1 20.9
08:45 1023 30.21 852 25.16 -2.1 28.2 75 -5.9 21.3
08:50 1023 30.21 852 25.16 -1.5 29.2 73 -5.9 21.5
08:55 1023 30.21 852 25.16 -1.5 29.2 71 -6.2 20.8
09:00 1023 30.21 852 25.16 -2.2 28.1 74 -6.2 20.8
09:05 1023 30.21 852 25.16 -1.9 28.6 72 -6.2 20.8
09:10 1023 30.21 852 25.16 -2 28.4 74 -6.1 21
09:15 1023 30.21 852 25.16 -2 28.3 74 -6 21.2
09:20 1023 30.21 852 25.16 -1.4 29.4 70 -6.2 20.9
09:25 1023 30.21 852 25.16 -0.7 30.8 68 -5.9 21.3
09:30 1023 30.21 852 25.16 0 32 66 -5.6 22
09:35 1023 30.21 852 25.16 0.2 32.4 66 -5.5 22.2
09:40 1023 30.21 852 25.16 0.1 32.2 67 -5.2 22.7
09:45 1023 30.21 852 25.16 0.2 32.4 68 -5.1 22.9
09:50 1023 30.21 852 25.16 0.3 32.6 67 -5.1 22.9
09:55 1023 30.21 852 25.16 0.7 33.3 66 -5 23.1
10:00 1023 30.21 852 25.16 0 32.1 71 -4.6 23.6
10:05 1023 30.21 852 25.16 -0.1 31.8 72 -4.6 23.8
10:10 1023 30.21 852 25.16 -0.3 31.5 73 -4.6 23.8
10:15 1023 30.21 852 25.16 -1 30.1 75 -4.9 23.1
10:20 1023 30.21 852 25.16 -0.7 30.7 74 -4.9 23.2
10:25 1023 30.21 852 25.16 -0.3 31.5 72 -4.8 23.3
10:30 1023 30.21 852 25.16 0.2 32.4 66 -5.4 22.3
10:35 1023 30.21 852 25.16 0.1 32.1 70 -4.8 23.3
10:40 1023 30.21 852 25.16 1.2 34.1 64 -5 23.1
10:45 1023 30.21 852 25.16 1.7 35.1 62 -4.8 23.3
10:50 1023 30.21 852 25.16 2.1 35.8 60 -4.8 23.3
10:55 1023 30.21 852 25.16 0.8 33.5 67 -4.6 23.7
11:00 1023 30.21 852 25.16 -0.4 31.2 71 -5.1 22.9
11:05 1023 30.21 852 25.16 -0.3 31.4 70 -5.2 22.6
11:10 1023 30.21 852 25.16 -0.8 30.6 75 -4.7 23.5
11:15 1023 30.21 853 25.19 -0.2 31.6 71 -4.8 23.3
11:20 1023 30.21 852 25.16 0.1 32.2 70 -4.7 23.6
11:25 1023 30.21 852 25.16 -0.6 31 73 -4.9 23.2
11:30 1023 30.21 852 25.16 0.4 32.7 69 -4.7 23.5
11:35 1023 30.21 852 25.16 0.3 32.6 71 -4.4 24.2
11:40 1023 30.21 852 25.16 -0.2 31.7 67 -5.6 22
11:45 1023 30.21 852 25.16 0.9 33.7 59 -6.1 21
11:50 1023 30.21 852 25.16 0.6 33.1 60 -6.3 20.7
11:55 1023 30.21 852 25.16 0.5 32.9 60 -6.4 20.4
12:00 1023 30.21 852 25.16 1.4 34.5 60 -5.7 21.8
12:05 1023 30.21 852 25.16 2.4 36.3 57 -5.2 22.6
12:10 1023 30.21 852 25.16 3.4 38.1 50 -6 21.1
12:15 1023 30.21 852 25.16 3.3 37.9 53 -5.4 22.2
12:20 1023 30.21 852 25.16 2.6 36.7 54 -5.8 21.6
12:25 1023 30.21 852 25.16 2.3 36.1 54 -6.1 21.1
12:30 1023 30.21 852 25.16 2.1 35.8 51 -7.1 19.3
12:35 1023 30.21 852 25.16 1.5 34.8 50 -7.8 17.9
12:40 1023 30.21 852 25.16 1.9 35.4 51 -7.1 19.1
12:45 1023 30.21 852 25.16 1.5 34.7 53 -7 19.3
12:50 1023 30.21 852 25.16 1.7 35.1 51 -7.4 18.6
12:55 1023 30.21 852 25.16 1.6 34.8 49 -8 17.6
13:00 1023 30.21 852 25.16 1.3 34.4 50 -8.1 17.4
13:05 1023 30.21 852 25.16 1.9 35.5 45 -8.8 16.1
13:10 1023 30.21 852 25.16 2.8 37 43 -8.6 16.4
13:15 1023 30.21 852 25.16 1.7 35.1 48 -8.3 17.1
13:20 1023 30.21 852 25.16 1.9 35.4 47 -8.3 17.1
13:25 1023 30.21 852 25.16 2.2 36 48 -7.8 18
13:30 1023 30.21 852 25.16 1.8 35.3 47 -8.4 17
13:35 1023 30.21 852 25.16 2 35.5 46 -8.5 16.7
13:40 1023 30.21 852 25.16 1.9 35.5 45 -8.8 16.2
13:45 1023 30.21 852 25.16 1.9 35.4 45 -8.9 16
13:50 1023 30.21 852 25.16 2.4 36.3 43 -8.9 16
13:55 1023 30.21 852 25.16 1.7 35 45 -9 15.8
14:00 1023 30.21 852 25.16 2.7 36.8 43 -8.6 16.6
14:05 1023 30.21 852 25.16 4.3 39.7 42 -7.6 18.3
14:10 1023 30.21 852 25.16 4.3 39.7 41 -7.7 18.1
14:15 1023 30.21 852 25.16 3.9 39 42 -8 17.6
14:20 1023 30.21 852 25.16 3.4 38.2 42 -8.4 16.8
14:25 1022 30.18 852 25.16 3.1 37.6 43 -8.2 17.3
14:30 1022 30.18 852 25.16 2.8 37.1 44 -8.2 17.2
14:35 1022 30.18 852 25.16 2.5 36.5 42 -9 15.7
14:40 1022 30.18 851 25.13 2.5 36.5 42 -9.3 15.3
14:45 1022 30.18 851 25.13 2.6 36.7 43 -8.7 16.4
14:50 1022 30.18 851 25.13 4 39.2 38 -9.1 15.6
14:55 1022 30.18 851 25.13 4.5 40 37 -9.1 15.6
15:00 1022 30.18 851 25.13 4.9 40.9 37 -8.6 16.5
15:05 1022 30.18 851 25.13 4.4 39.9 41 -7.8 18
15:10 1022 30.18 851 25.13 4.4 39.9 41 -7.8 18
15:15 1022 30.18 851 25.13 3.9 39 44 -7.2 19.1
15:20 1022 30.18 851 25.13 3.5 38.3 42 -8.3 17
15:25 1022 30.18 851 25.13 3.4 38 42 -8.4 16.8
15:30 1022 30.18 851 25.13 3.7 38.7 41 -8.3 17.1
15:35 1022 30.18 851 25.13 4.3 39.8 40 -8 17.5
15:40 1022 30.18 851 25.13 4 39.3 43 -7.5 18.5
15:45 1022 30.18 851 25.13 4 39.3 43 -7.3 18.9
15:50 1022 30.18 851 25.13 3.9 39 42 -7.8 18
15:55 1022 30.18 851 25.13 4 39.3 42 -7.7 18.1
16:00 1022 30.18 851 25.13 4 39.2 44 -7.1 19.1
16:05 1022 30.18 851 25.13 4.2 39.5 41 -8 17.7
16:10 1021 30.15 851 25.13 4.3 39.7 40 -8 17.5
16:15 1021 30.15 851 25.13 4.1 39.4 40 -8.5 16.8
16:20 1021 30.15 851 25.13 3.7 38.6 43 -7.7 18.1
16:25 1021 30.15 851 25.13 4 39.2 41 -8.2 17.3
16:30 1021 30.15 851 25.13 3.9 39.1 46 -6.6 20.1
16:35 1021 30.15 850 25.1 3.4 38.2 53 -5.2 22.6
16:40 1021 30.15 851 25.13 3.3 37.9 57 -4.5 23.8
16:45 1021 30.15 851 25.13 3.3 37.9 55 -4.9 23.1
16:50 1021 30.15 851 25.13 3.3 37.9 57 -4.5 23.9
16:55 1021 30.15 850 25.1 3.2 37.8 58 -4.2 24.5
17:00 1021 30.15 850 25.1 2.9 37.2 60 -4.1 24.6
17:05 1021 30.15 851 25.13 2.6 36.8 60 -4.3 24.2
17:10 1021 30.15 851 25.13 2.3 36.2 61 -4.3 24.2
17:15 1021 30.15 850 25.1 2.1 35.8 63 -4.2 24.4
17:20 1021 30.15 851 25.13 1.7 35.1 61 -5.1 22.8
17:25 1021 30.15 850 25.1 1.4 34.6 62 -5.1 22.9
17:30 1021 30.15 850 25.1 1.4 34.5 61 -5.3 22.4
17:35 1021 30.15 850 25.1 1.1 34.1 62 -5.2 22.6
17:40 1021 30.15 850 25.1 1 33.8 63 -5.2 22.7
17:45 1021 30.15 850 25.1 1.1 33.9 65 -4.8 23.3
17:50 1021 30.15 850 25.1 0.7 33.3 65 -5 23
17:55 1021 30.15 850 25.1 0.3 32.6 67 -5 22.9
18:00 1021 30.15 850 25.1 0.2 32.3 67 -5.2 22.6
18:05 1021 30.15 850 25.1 0.1 32.1 68 -5.2 22.6
18:10 1021 30.15 850 25.1 -0.1 31.9 68 -5.2 22.7
18:15 1021 30.15 850 25.1 -0.2 31.7 69 -5.1 22.8
18:20 1021 30.15 850 25.1 -0.3 31.5 70 -5.2 22.7
18:25 1021 30.15 850 25.1 -0.5 31.2 71 -5 23
18:30 1021 30.15 850 25.1 -0.6 30.9 72 -5 22.9
18:35 1021 30.15 850 25.1 -0.8 30.6 72 -5.1 22.7
18:40 1021 30.15 850 25.1 -0.9 30.3 72 -5.3 22.4
18:45 1021 30.15 850 25.1 -1.3 29.7 75 -5.1 22.7
18:50 1021 30.15 850 25.1 -1.4 29.6 74 -5.3 22.4
18:55 1021 30.15 850 25.1 -1.4 29.4 76 -5.2 22.6
19:00 1021 30.15 850 25.1 -1.5 29.3 76 -5.2 22.6
19:05 1021 30.15 850 25.1 -1.7 29 78 -5 23
19:10 1021 30.15 850 25.1 -1.8 28.8 77 -5.3 22.5
19:15 1021 30.15 850 25.1 -1.9 28.6 77 -5.4 22.2
19:20 1021 30.15 850 25.1 -2 28.5 77 -5.4 22.2
19:25 1021 30.15 850 25.1 -2.1 28.2 77 -5.5 22
19:30 1021 30.15 850 25.1 -2.2 28 78 -5.6 21.9
19:35 1021 30.15 850 25.1 -2.3 27.9 79 -5.5 22.2
19:40 1021 30.15 850 25.1 -2.4 27.7 79 -5.5 22.2
19:45 1021 30.15 850 25.1 -2.4 27.6 80 -5.4 22.3
19:50 1021 30.15 850 25.1 -2.6 27.4 81 -5.4 22.3
19:55 1021 30.15 850 25.1 -2.6 27.2 81 -5.4 22.2
20:00 1021 30.15 850 25.1 -2.6 27.2 82 -5.3 22.4
20:05 1021 30.15 850 25.1 -2.7 27.1 82 -5.4 22.3
20:10 1021 30.15 851 25.13 -2.8 27 83 -5.3 22.4
20:15 1022 30.18 851 25.13 -2.8 27 83 -5.3 22.4
20:20 1022 30.18 851 25.13 -2.8 27 83 -5.3 22.4
20:25 1022 30.18 851 25.13 -2.7 27.1 82 -5.4 22.3
20:30 1022 30.18 851 25.13 -2.8 27 81 -5.5 22.1
20:35 1022 30.18 851 25.13 -2.8 27 81 -5.7 21.8
20:40 1022 30.18 851 25.13 -2.8 26.9 80 -5.8 21.6
20:45 1022 30.18 851 25.13 -2.9 26.9 80 -5.8 21.5
20:50 1022 30.18 851 25.13 -2.9 26.9 80 -5.9 21.5
20:55 1022 30.18 851 25.13 -2.9 26.8 80 -5.8 21.5
21:00 1022 30.18 851 25.13 -2.9 26.8 80 -5.9 21.3
21:05 1022 30.18 851 25.13 -2.9 26.8 80 -6 21.3
21:10 1022 30.18 851 25.13 -2.9 26.8 80 -6 21.3
21:15 1022 30.18 851 25.13 -2.9 26.8 79 -6 21.2
21:20 1022 30.18 851 25.13 -2.9 26.8 80 -5.9 21.3
21:25 1022 30.18 852 25.16 -2.9 26.7 79 -6 21.2
21:30 1022 30.18 852 25.16 -2.9 26.8 79 -6 21.2
21:35 1022 30.18 852 25.16 -2.9 26.8 79 -6.1 21.1
21:40 1023 30.21 852 25.16 -2.8 26.9 79 -6 21.2
21:45 1022 30.18 852 25.16 -2.9 26.8 79 -6.1 21.1
21:50 1023 30.21 852 25.16 -2.9 26.8 79 -6.1 21
21:55 1023 30.21 852 25.16 -2.9 26.8 79 -6 21.1
22:00 1023 30.21 852 25.16 -2.9 26.8 79 -6 21.2
22:05 1023 30.21 852 25.16 -2.9 26.7 79 -6.1 21
22:10 1023 30.21 852 25.16 -2.9 26.8 79 -6.1 21.1
22:15 1023 30.21 852 25.16 -3 26.6 79 -6.1 21
22:20 1023 30.21 852 25.16 -3 26.7 79 -6.1 21.1
22:25 1023 30.21 852 25.16 -3 26.6 80 -6.1 21.1
22:30 1023 30.21 852 25.16 -3 26.7 80 -6 21.2
22:35 1023 30.21 852 25.16 -3 26.6 80 -6 21.3
22:40 1023 30.21 852 25.16 -3 26.5 81 -5.9 21.4
22:45 1023 30.21 852 25.16 -3.1 26.5 81 -5.8 21.5
22:50 1023 30.21 852 25.16 -3.1 26.4 81 -5.8 21.5
22:55 1023 30.21 852 25.16 -3.1 26.4 82 -5.7 21.7
23:00 1023 30.21 852 25.16 -3.1 26.4 82 -5.7 21.7
23:05 1023 30.21 852 25.16 -3.2 26.3 83 -5.6 21.8
23:10 1023 30.21 852 25.16 -3.2 26.3 84 -5.5 22
23:15 1023 30.21 852 25.16 -3.2 26.2 84 -5.5 22.1
23:20 1023 30.21 852 25.16 -3.2 26.2 84 -5.5 22.1
23:25 1023 30.21 852 25.16 -3.2 26.3 85 -5.4 22.3
23:30 1023 30.21 852 25.16 -3.2 26.2 85 -5.4 22.3
23:35 1023 30.21 852 25.16 -3.3 26.1 86 -5.4 22.3
23:40 1023 30.21 852 25.16 -3.3 26.1 86 -5.3 22.5
23:45 1023 30.21 852 25.16 -3.3 26 87 -5.2 22.6
23:50 1023 30.21 852 25.16 -3.4 26 87 -5.2 22.7
23:55 1023 30.21 852 25.16 -3.4 25.9 88 -5.2 22.7
24:00 1023 30.21 852 25.16 -3.4 25.8 88 -5.2 22.7